sensor_id;sensor_type;location;lat;lon;timestamp;P1;durP1;ratioP1;P2;durP2;ratioP2
39308;SDS011;26019;47.510;19.122;2023-05-07T00:05:47;14.75;;;10.85;;
39308;SDS011;26019;47.510;19.122;2023-05-07T00:15:50;19.95;;;14.10;;
39308;SDS011;26019;47.510;19.122;2023-05-07T00:25:53;21.33;;;15.97;;
39308;SDS011;26019;47.510;19.122;2023-05-07T00:36:00;26.40;;;17.10;;
39308;SDS011;26019;47.510;19.122;2023-05-07T00:46:03;22.23;;;15.18;;
39308;SDS011;26019;47.510;19.122;2023-05-07T00:56:05;29.13;;;16.03;;
39308;SDS011;26019;47.510;19.122;2023-05-07T01:26:16;27.40;;;17.60;;
39308;SDS011;26019;47.510;19.122;2023-05-07T01:36:22;24.05;;;17.35;;
39308;SDS011;26019;47.510;19.122;2023-05-07T01:46:27;22.42;;;16.55;;
39308;SDS011;26019;47.510;19.122;2023-05-07T01:56:30;24.92;;;17.98;;
39308;SDS011;26019;47.510;19.122;2023-05-07T02:06:36;22.77;;;18.47;;
39308;SDS011;26019;47.510;19.122;2023-05-07T02:16:38;23.70;;;18.27;;
39308;SDS011;26019;47.510;19.122;2023-05-07T02:26:41;24.92;;;18.52;;
39308;SDS011;26019;47.510;19.122;2023-05-07T02:36:44;26.95;;;19.17;;
39308;SDS011;26019;47.510;19.122;2023-05-07T02:46:47;26.45;;;18.90;;
39308;SDS011;26019;47.510;19.122;2023-05-07T03:07:03;29.52;;;20.77;;
39308;SDS011;26019;47.510;19.122;2023-05-07T03:17:05;28.48;;;20.50;;
39308;SDS011;26019;47.510;19.122;2023-05-07T03:27:06;28.58;;;20.50;;
39308;SDS011;26019;47.510;19.122;2023-05-07T03:37:08;27.38;;;19.85;;
39308;SDS011;26019;47.510;19.122;2023-05-07T03:47:10;32.55;;;22.50;;
39308;SDS011;26019;47.510;19.122;2023-05-07T03:57:15;27.63;;;20.08;;
39308;SDS011;26019;47.510;19.122;2023-05-07T04:07:18;28.42;;;19.63;;
39308;SDS011;26019;47.510;19.122;2023-05-07T04:17:21;29.55;;;21.55;;
39308;SDS011;26019;47.510;19.122;2023-05-07T04:27:23;29.13;;;21.45;;
39308;SDS011;26019;47.510;19.122;2023-05-07T04:37:31;29.40;;;21.77;;
39308;SDS011;26019;47.510;19.122;2023-05-07T04:57:40;32.67;;;22.63;;
39308;SDS011;26019;47.510;19.122;2023-05-07T05:17:45;21.58;;;17.00;;
39308;SDS011;26019;47.510;19.122;2023-05-07T05:27:50;17.58;;;13.65;;
39308;SDS011;26019;47.510;19.122;2023-05-07T05:37:52;22.47;;;16.67;;
39308;SDS011;26019;47.510;19.122;2023-05-07T05:47:55;21.07;;;14.30;;
39308;SDS011;26019;47.510;19.122;2023-05-07T05:58:01;14.63;;;10.50;;
39308;SDS011;26019;47.510;19.122;2023-05-07T06:08:03;12.52;;;9.40;;
39308;SDS011;26019;47.510;19.122;2023-05-07T06:18:07;9.93;;;8.23;;
39308;SDS011;26019;47.510;19.122;2023-05-07T06:28:11;11.65;;;8.75;;
39308;SDS011;26019;47.510;19.122;2023-05-07T06:38:12;11.55;;;7.95;;
39308;SDS011;26019;47.510;19.122;2023-05-07T06:48:16;10.35;;;7.70;;
39308;SDS011;26019;47.510;19.122;2023-05-07T06:58:19;6.45;;;5.45;;
39308;SDS011;26019;47.510;19.122;2023-05-07T07:08:36;5.00;;;3.55;;
39308;SDS011;26019;47.510;19.122;2023-05-07T07:18:42;6.47;;;4.28;;
39308;SDS011;26019;47.510;19.122;2023-05-07T07:28:44;3.97;;;3.58;;
39308;SDS011;26019;47.510;19.122;2023-05-07T07:38:46;3.95;;;3.00;;
39308;SDS011;26019;47.510;19.122;2023-05-07T07:48:53;3.83;;;2.80;;
39308;SDS011;26019;47.510;19.122;2023-05-07T07:59:02;4.55;;;3.58;;
39308;SDS011;26019;47.510;19.122;2023-05-07T08:09:20;6.53;;;4.18;;
39308;SDS011;26019;47.510;19.122;2023-05-07T08:19:23;3.22;;;2.92;;
39308;SDS011;26019;47.510;19.122;2023-05-07T08:29:27;3.83;;;3.42;;
39308;SDS011;26019;47.510;19.122;2023-05-07T08:39:28;2.10;;;1.90;;
39308;SDS011;26019;47.510;19.122;2023-05-07T08:49:30;4.82;;;2.40;;
39308;SDS011;26019;47.510;19.122;2023-05-07T08:59:33;4.28;;;2.42;;
39308;SDS011;26019;47.510;19.122;2023-05-07T09:09:36;2.45;;;2.00;;
39308;SDS011;26019;47.510;19.122;2023-05-07T09:19:38;3.35;;;2.03;;
39308;SDS011;26019;47.510;19.122;2023-05-07T09:29:44;2.15;;;1.98;;
39308;SDS011;26019;47.510;19.122;2023-05-07T09:39:47;1.70;;;1.60;;
39308;SDS011;26019;47.510;19.122;2023-05-07T10:00:05;1.30;;;1.20;;
39308;SDS011;26019;47.510;19.122;2023-05-07T10:10:09;2.67;;;2.15;;
39308;SDS011;26019;47.510;19.122;2023-05-07T10:20:14;1.73;;;1.55;;
39308;SDS011;26019;47.510;19.122;2023-05-07T10:40:24;2.35;;;2.08;;
39308;SDS011;26019;47.510;19.122;2023-05-07T10:50:25;3.42;;;2.65;;
39308;SDS011;26019;47.510;19.122;2023-05-07T11:10:55;2.10;;;1.92;;
39308;SDS011;26019;47.510;19.122;2023-05-07T11:20:59;3.07;;;2.33;;
39308;SDS011;26019;47.510;19.122;2023-05-07T11:31:08;2.40;;;2.20;;
39308;SDS011;26019;47.510;19.122;2023-05-07T11:41:12;4.45;;;2.38;;
39308;SDS011;26019;47.510;19.122;2023-05-07T11:51:28;4.78;;;2.35;;
39308;SDS011;26019;47.510;19.122;2023-05-07T12:01:32;3.40;;;2.17;;
39308;SDS011;26019;47.510;19.122;2023-05-07T12:11:36;2.55;;;2.15;;
39308;SDS011;26019;47.510;19.122;2023-05-07T12:21:41;3.03;;;2.05;;
39308;SDS011;26019;47.510;19.122;2023-05-07T12:31:44;2.67;;;2.10;;
39308;SDS011;26019;47.510;19.122;2023-05-07T12:42:00;3.20;;;2.10;;
39308;SDS011;26019;47.510;19.122;2023-05-07T12:52:05;2.03;;;1.90;;
39308;SDS011;26019;47.510;19.122;2023-05-07T13:02:09;1.88;;;1.75;;
39308;SDS011;26019;47.510;19.122;2023-05-07T13:12:12;2.13;;;1.92;;
39308;SDS011;26019;47.510;19.122;2023-05-07T13:22:16;1.88;;;1.75;;
39308;SDS011;26019;47.510;19.122;2023-05-07T13:32:18;1.92;;;1.65;;
39308;SDS011;26019;47.510;19.122;2023-05-07T13:42:22;1.95;;;1.55;;
39308;SDS011;26019;47.510;19.122;2023-05-07T13:52:23;2.92;;;1.60;;
39308;SDS011;26019;47.510;19.122;2023-05-07T14:02:26;2.70;;;2.30;;
39308;SDS011;26019;47.510;19.122;2023-05-07T14:12:29;7.18;;;2.95;;
39308;SDS011;26019;47.510;19.122;2023-05-07T14:22:30;4.70;;;2.35;;
39308;SDS011;26019;47.510;19.122;2023-05-07T14:32:36;2.13;;;1.92;;
39308;SDS011;26019;47.510;19.122;2023-05-07T14:42:39;5.05;;;1.67;;
39308;SDS011;26019;47.510;19.122;2023-05-07T14:52:41;2.33;;;1.90;;
39308;SDS011;26019;47.510;19.122;2023-05-07T15:02:43;2.92;;;1.98;;
39308;SDS011;26019;47.510;19.122;2023-05-07T15:12:45;2.92;;;2.35;;
39308;SDS011;26019;47.510;19.122;2023-05-07T15:22:48;2.72;;;2.53;;
39308;SDS011;26019;47.510;19.122;2023-05-07T15:32:50;3.15;;;2.88;;
39308;SDS011;26019;47.510;19.122;2023-05-07T15:42:53;2.90;;;2.70;;
39308;SDS011;26019;47.510;19.122;2023-05-07T15:53:01;5.10;;;2.85;;
39308;SDS011;26019;47.510;19.122;2023-05-07T16:03:04;2.40;;;2.20;;
39308;SDS011;26019;47.510;19.122;2023-05-07T16:13:07;3.45;;;2.15;;
39308;SDS011;26019;47.510;19.122;2023-05-07T16:23:09;3.13;;;2.20;;
39308;SDS011;26019;47.510;19.122;2023-05-07T16:33:13;3.90;;;1.77;;
39308;SDS011;26019;47.510;19.122;2023-05-07T16:54:58;3.53;;;2.97;;
39308;SDS011;26019;47.510;19.122;2023-05-07T17:05:02;4.15;;;2.60;;
39308;SDS011;26019;47.510;19.122;2023-05-07T17:15:06;4.65;;;2.30;;
39308;SDS011;26019;47.510;19.122;2023-05-07T17:25:09;2.65;;;2.20;;
39308;SDS011;26019;47.510;19.122;2023-05-07T17:35:15;2.95;;;2.00;;
39308;SDS011;26019;47.510;19.122;2023-05-07T17:45:18;2.75;;;2.00;;
39308;SDS011;26019;47.510;19.122;2023-05-07T17:55:23;3.97;;;1.80;;
39308;SDS011;26019;47.510;19.122;2023-05-07T18:05:25;2.13;;;1.92;;
39308;SDS011;26019;47.510;19.122;2023-05-07T18:15:27;3.22;;;2.25;;
39308;SDS011;26019;47.510;19.122;2023-05-07T18:25:29;3.78;;;2.92;;
39308;SDS011;26019;47.510;19.122;2023-05-07T18:35:32;3.20;;;2.90;;
39308;SDS011;26019;47.510;19.122;2023-05-07T18:45:40;5.37;;;3.03;;
39308;SDS011;26019;47.510;19.122;2023-05-07T18:55:47;9.30;;;3.50;;
39308;SDS011;26019;47.510;19.122;2023-05-07T19:05:55;6.55;;;4.80;;
39308;SDS011;26019;47.510;19.122;2023-05-07T19:15:58;8.18;;;5.32;;
39308;SDS011;26019;47.510;19.122;2023-05-07T19:26:00;9.32;;;5.10;;
39308;SDS011;26019;47.510;19.122;2023-05-07T19:36:03;10.20;;;3.95;;
39308;SDS011;26019;47.510;19.122;2023-05-07T19:46:07;4.07;;;3.67;;
39308;SDS011;26019;47.510;19.122;2023-05-07T19:56:13;5.80;;;3.42;;
39308;SDS011;26019;47.510;19.122;2023-05-07T20:06:16;4.38;;;2.67;;
39308;SDS011;26019;47.510;19.122;2023-05-07T20:16:24;3.17;;;2.87;;
39308;SDS011;26019;47.510;19.122;2023-05-07T20:26:26;3.25;;;2.80;;
39308;SDS011;26019;47.510;19.122;2023-05-07T20:36:28;6.53;;;3.10;;
39308;SDS011;26019;47.510;19.122;2023-05-07T20:46:30;3.15;;;2.40;;
39308;SDS011;26019;47.510;19.122;2023-05-07T20:56:35;3.20;;;2.85;;
39308;SDS011;26019;47.510;19.122;2023-05-07T21:06:36;4.00;;;3.30;;
39308;SDS011;26019;47.510;19.122;2023-05-07T21:16:38;3.80;;;2.95;;
39308;SDS011;26019;47.510;19.122;2023-05-07T21:26:41;3.20;;;2.83;;
39308;SDS011;26019;47.510;19.122;2023-05-07T21:36:43;5.28;;;2.72;;
39308;SDS011;26019;47.510;19.122;2023-05-07T21:46:44;3.75;;;3.05;;
39308;SDS011;26019;47.510;19.122;2023-05-07T21:56:51;4.40;;;3.20;;
39308;SDS011;26019;47.510;19.122;2023-05-07T22:06:52;6.22;;;4.20;;
39308;SDS011;26019;47.510;19.122;2023-05-07T22:16:54;8.85;;;4.43;;
39308;SDS011;26019;47.510;19.122;2023-05-07T22:26:56;7.40;;;3.83;;
39308;SDS011;26019;47.510;19.122;2023-05-07T22:36:59;6.43;;;3.50;;
39308;SDS011;26019;47.510;19.122;2023-05-07T22:47:03;5.15;;;4.13;;
39308;SDS011;26019;47.510;19.122;2023-05-07T22:57:06;5.65;;;4.00;;
39308;SDS011;26019;47.510;19.122;2023-05-07T23:07:10;5.60;;;4.17;;
39308;SDS011;26019;47.510;19.122;2023-05-07T23:17:11;5.20;;;4.13;;
39308;SDS011;26019;47.510;19.122;2023-05-07T23:27:14;7.50;;;4.50;;
39308;SDS011;26019;47.510;19.122;2023-05-07T23:37:18;7.83;;;4.83;;
39308;SDS011;26019;47.510;19.122;2023-05-07T23:47:19;8.13;;;4.05;;
39308;SDS011;26019;47.510;19.122;2023-05-07T23:57:23;7.38;;;4.05;;
